Latest Weather Observations for Marree Airport

IDS60801

Issued at 4:01 pm CDT Sunday 22 January 2017 (issued every 30 minutes, with the page automatically refreshed every 10 minutes)

About weather observations | Map of weather stations | Latest weather observations for SA | Other Formats
Station Details ID: 017126 Name: MARREE AERO Lat: -29.66 Lon: 138.07 Height: 50.0 m
Data from the previous 72 hours. | See also: Recent months at Marree Airport
Date/Time
CDT
Temp
°C
App
Temp
°C
Dew
Point
°C
Rel
Hum
%
Delta-T
°C
Wind Press
QNH
hPa
Press
MSL
hPa
Rain since
9am
mm
Dir  Spd
km/h
Gust
km/h
Spd
kts
Gust
kts
22/04:00pm 37.0 37.0 13.7 25 14.4 N 6 13 3 7 1007.5 1007.2 0.0
22/03:30pm 36.7 36.5 13.5 25 14.3 WNW 7 15 4 8 1007.8 1007.5 0.0
22/03:00pm 36.4 35.9 11.9 23 14.7 NW 6 11 3 6 1008.1 1007.8 0.0
22/02:30pm 36.4 36.2 11.9 23 14.7 ESE 4 9 2 5 1008.4 1008.1 0.0
22/02:00pm 35.1 33.9 11.5 24 14.0 NNE 9 20 5 11 1008.9 1008.6 0.0
22/01:30pm 34.8 33.3 11.9 25 13.7 NNE 11 19 6 10 1009.5 1009.1 0.0
22/01:00pm 34.1 32.3 10.7 24 13.6 NE 11 20 6 11 1009.7 1009.3 0.0
22/12:30pm 34.1 31.7 11.3 25 13.4 ENE 15 24 8 13 1009.9 1009.5 0.0
22/12:00pm 33.1 30.2 9.8 24 13.4 ENE 15 24 8 13 1010.4 1010.0 0.0
22/11:30am 33.1 29.7 9.2 23 13.6 NE 17 22 9 12 1010.8 1010.4 0.0
22/11:00am 32.7 29.0 9.5 24 13.2 ENE 19 24 10 13 1010.9 1010.5 0.0
22/10:30am 32.4 28.1 8.0 22 13.5 ENE 20 30 11 16 1011.1 1010.7 0.0
22/10:00am 31.2 27.3 9.4 26 12.3 E 20 26 11 14 1011.3 1010.9 0.0
22/09:30am 30.1 26.1 9.1 27 11.7 E 20 24 11 13 1011.4 1011.0 0.0
22/09:00am 28.7 24.7 10.4 32 10.4 E 22 26 12 14 1011.3 1010.9 0.0
22/08:30am 27.2 24.4 11.3 37 9.1 ESE 17 24 9 13 1011.2 1010.8 0.0
22/08:00am 24.9 23.7 14.1 51 6.4 SE 13 17 7 9 1011.1 1010.7 0.0
22/07:30am 24.4 23.4 14.5 54 5.9 SE 13 15 7 8 1010.8 1010.4 0.0
22/07:00am 24.0 23.7 15.5 59 5.1 SSE 11 13 6 7 1010.4 1010.0 0.0
22/06:30am 23.9 23.2 15.4 59 5.1 SSE 13 15 7 8 1010.2 1009.8 0.0
22/06:00am 23.9 23.6 15.4 59 5.1 SE 11 13 6 7 1009.9 1009.5 0.0
22/05:30am 24.0 23.6 15.2 58 5.3 SE 11 13 6 7 1009.7 1009.3 0.0
22/05:00am 23.9 23.4 14.9 57 5.4 SE 11 13 6 7 1009.7 1009.3 0.0
22/04:30am 23.9 23.0 14.9 57 5.4 SE 13 15 7 8 1009.5 1009.1 0.0
22/04:00am 24.1 23.7 15.1 57 5.4 SSE 11 13 6 7 1009.8 1009.4 0.0
22/03:30am 24.4 24.0 15.1 56 5.6 SSE 11 13 6 7 1009.9 1009.5 0.0
22/03:00am 24.9 24.7 14.7 53 6.1 SSE 9 11 5 6 1010.3 1009.9 0.0
22/02:30am 25.4 25.6 14.8 52 6.4 SE 7 7 4 4 1010.5 1010.1 0.0
22/02:00am 25.9 26.0 14.4 49 6.9 ESE 7 9 4 5 1010.7 1010.3 0.0
22/01:30am 26.4 25.8 13.5 45 7.6 E 9 11 5 6 1011.0 1010.6 0.0
22/01:00am 26.7 25.8 13.8 45 7.7 E 11 15 6 8 1011.3 1010.9 0.0
22/12:30am 26.9 24.9 14.0 45 7.7 E 17 20 9 11 1011.0 1010.6 0.0
22/12:00am 27.2 25.3 14.2 44 7.8 ESE 17 20 9 11 1011.0 1010.6 0.0
 
Date/Time
CDT
Temp
°C
App
Temp
°C
Dew
Point
°C
Rel
Hum
%
Delta-T
°C
Wind Press
QNH
hPa
Press
MSL
hPa
Rain since
9am
mm
Dir  Spd
km/h
Gust
km/h
Spd
kts
Gust
kts
21/11:30pm 27.8 25.2 13.7 42 8.4 E 20 28 11 15 1010.8 1010.4 0.0
21/11:00pm 28.5 26.1 15.4 45 8.0 E 22 32 12 17 1010.7 1010.3 0.0
21/10:30pm 29.1 27.9 17.0 48 7.6 SE 19 24 10 13 1010.6 1010.2 0.0
21/10:00pm 29.6 28.5 16.4 45 8.2 SSE 17 24 9 13 1010.2 1009.8 0.0
21/09:30pm 30.2 28.3 15.1 40 9.3 SSE 19 24 10 13 1009.9 1009.5 0.0
21/09:00pm 30.7 29.0 14.8 38 9.7 SSE 17 19 9 10 1009.5 1009.1 0.0
21/08:30pm 31.3 29.9 14.4 35 10.3 SSE 15 17 8 9 1009.4 1009.0 0.0
21/08:00pm 32.4 30.3 13.6 32 11.4 SSE 17 20 9 11 1009.1 1008.8 0.0
21/07:30pm 33.1 31.6 14.2 32 11.6 SSE 15 24 8 13 1008.8 1008.5 0.0
21/07:00pm 33.6 32.1 14.1 30 11.9 SSE 15 22 8 12 1008.5 1008.2 0.0
21/06:30pm 33.3 32.2 14.4 32 11.6 S 13 24 7 13 1008.4 1008.1 0.0
21/06:00pm 34.0 33.0 14.5 31 12.1 SSE 13 20 7 11 1008.5 1008.2 0.0
21/05:30pm 33.2 32.5 14.3 32 11.6 E 11 17 6 9 1008.7 1008.4 0.0
21/05:00pm 33.0 31.5 14.1 32 11.6 SE 15 22 8 12 1009.0 1008.7 0.0
21/04:30pm 33.6 33.0 14.6 31 11.7 SE 11 22 6 12 1009.4 1009.0 0.0
21/04:00pm 32.3 32.2 14.0 33 11.1 ENE 7 15 4 8 1009.7 1009.3 0.0
21/03:30pm 32.4 32.1 14.5 33 11.0 SSE 9 19 5 10 1010.1 1009.7 0.0
21/03:00pm 31.7 31.5 14.8 36 10.4 SSE 9 17 5 9 1010.3 1009.9 0.0
21/02:30pm 31.3 31.0 14.4 35 10.3 ENE 9 32 5 17 1010.4 1010.0 0.0
21/02:00pm 30.7 29.5 13.9 36 10.1 S 13 19 7 10 1010.5 1010.1 0.0
21/01:30pm 30.0 29.1 14.9 39 9.2 E 13 22 7 12 1011.0 1010.6 0.0
21/01:00pm 30.1 29.4 15.4 41 9.1 SE 13 24 7 13 1011.2 1010.8 0.0
21/12:30pm 29.3 29.0 15.4 42 8.6 ESE 11 22 6 12 1011.3 1010.9 0.0
21/12:00pm 28.0 26.1 14.3 43 8.2 ESE 17 24 9 13 1011.6 1011.2 0.0
21/11:30am 27.8 25.5 14.1 43 8.2 SE 19 26 10 14 1011.9 1011.5 0.0
21/11:00am 27.2 24.9 14.2 44 7.8 ESE 19 28 10 15 1012.0 1011.6 0.0
21/10:30am 26.6 25.0 15.0 49 7.0 ESE 17 24 9 13 1012.1 1011.7 0.0
21/10:00am 25.9 24.4 15.3 52 6.4 ESE 17 20 9 11 1012.2 1011.8 0.0
21/09:30am 25.3 23.9 15.6 55 5.9 ESE 17 22 9 12 1012.3 1011.9 0.0
21/09:00am 24.8 23.1 15.7 57 5.5 E 19 22 10 12 1012.0 1011.6 0.4
21/08:30am 24.4 22.8 15.9 59 5.2 ENE 19 24 10 13 1011.7 1011.3 0.4
21/08:00am 23.7 23.3 18.1 71 3.5 E 17 19 9 10 1011.3 1010.9 0.4
21/07:30am 22.8 24.5 20.1 85 1.7 SE 11 13 6 7 1011.0 1010.6 0.4
21/07:00am 21.8 24.7 21.0 95 0.5 SE 7 9 4 5 1010.7 1010.3 0.4
21/06:30am 21.2 23.8 20.4 95 0.5 SSE 7 11 4 6 1010.4 1010.0 0.4
21/06:00am 21.2 23.4 20.4 95 0.5 SSE 9 9 5 5 1010.1 1009.7 0.4
21/05:30am 21.3 23.2 20.5 95 0.5 SSE 11 13 6 7 1009.6 1009.2 0.4
21/05:00am 21.6 22.9 20.2 92 0.9 SSE 13 17 7 9 1009.0 1008.7 0.4
21/04:30am 21.7 22.7 20.3 92 0.9 SSE 15 17 8 9 1008.9 1008.6 0.4
21/04:00am 21.4 21.8 19.9 91 1.0 SSE 17 19 9 10 1008.6 1008.3 0.4
21/03:30am 21.2 21.7 19.3 89 1.2 SSE 15 20 8 11 1008.5 1008.2 0.4
21/03:00am 21.3 20.9 18.9 86 1.5 SSE 19 24 10 13 1008.6 1008.3 0.4
21/02:30am 21.6 20.3 18.2 81 2.1 SSE 22 28 12 15 1008.7 1008.4 0.4
21/02:00am 22.0 20.6 18.0 78 2.5 SSE 22 32 12 17 1008.5 1008.2 0.4
21/01:30am 22.0 20.5 17.8 77 2.6 SSE 22 30 12 16 1008.4 1008.1 0.4
21/01:00am 22.3 20.2 17.2 73 3.1 S 24 33 13 18 1008.2 1007.9 0.4
21/12:30am 22.8 20.6 17.0 70 3.6 S 24 32 13 17 1008.5 1008.2 0.4
21/12:00am 23.0 21.2 17.0 69 3.7 S 22 28 12 15 1008.4 1008.1 0.4
 
Date/Time
CDT
Temp
°C
App
Temp
°C
Dew
Point
°C
Rel
Hum
%
Delta-T
°C
Wind Press
QNH
hPa
Press
MSL
hPa
Rain since
9am
mm
Dir  Spd
km/h
Gust
km/h
Spd
kts
Gust
kts
20/11:30pm 23.4 21.8 17.4 69 3.7 S 22 30 12 16 1008.3 1008.0 0.4
20/11:00pm 23.9 21.3 17.9 69 3.8 S 28 33 15 18 1008.1 1007.8 0.4
20/10:30pm 24.5 22.7 18.7 70 3.7 S 26 35 14 19 1007.9 1007.6 0.4
20/10:00pm 25.3 24.1 19.2 69 3.9 SSW 24 30 13 16 1007.8 1007.5 0.4
20/09:30pm 25.8 25.0 18.5 64 4.7 SSW 20 26 11 14 1007.6 1007.3 0.4
20/09:00pm 26.2 24.9 19.1 65 4.6 SSW 24 32 13 17 1007.0 1006.7 0.4
20/08:30pm 26.6 25.6 19.7 66 4.5 S 24 33 13 18 1006.4 1006.1 0.4
20/08:00pm 27.3 25.8 19.4 62 5.1 SSW 26 32 14 17 1005.9 1005.6 0.4
20/07:30pm 27.5 25.7 19.6 62 5.2 S 28 37 15 20 1005.5 1005.2 0.4
20/07:00pm 27.9 25.5 19.9 61 5.2 S 32 39 17 21 1004.9 1004.6 0.4
20/06:30pm 28.4 26.2 20.4 62 5.3 S 32 39 17 21 1004.6 1004.3 0.4
20/06:00pm 28.5 26.2 20.5 62 5.3 S 33 46 18 25 1004.5 1004.2 0.4
20/05:30pm 28.6 26.2 21.1 64 5.0 S 35 46 19 25 1004.6 1004.3 0.4
20/05:00pm 28.8 26.4 21.1 63 5.1 S 35 46 19 25 1004.5 1004.2 0.4
20/04:30pm 28.6 26.4 21.4 65 4.8 S 35 46 19 25 1004.8 1004.5 0.4
20/04:00pm 28.4 26.0 21.9 68 4.4 S 37 50 20 27 1004.9 1004.6 0.4
20/03:30pm 28.5 26.5 22.5 70 4.1 SSW 37 44 20 24 1004.9 1004.6 0.4
20/03:00pm 27.9 26.4 22.8 74 3.5 SSW 35 46 19 25 1005.0 1004.7 0.4
20/02:30pm 27.8 26.8 23.6 78 2.9 SSW 35 43 19 23 1005.0 1004.7 0.4
20/02:00pm 28.4 27.7 25.4 84 2.1 SSW 39 46 21 25 1005.0 1004.7 0.4
20/01:30pm 30.1 30.3 25.6 77 3.2 SSW 35 44 19 24 1004.6 1004.3 0.4
20/01:00pm 29.5 30.5 27.9 91 1.2 SW 39 46 21 25 1004.7 1004.4 0.4
20/12:30pm 30.8 34.2 25.8 74 3.6 SW 19 30 10 16 1004.6 1004.3 0.4
20/12:00pm 30.5 33.7 25.8 76 3.4 SW 20 28 11 15 1004.6 1004.3 0.4
20/11:30am 30.1 35.2 28.3 90 1.3 WSW 19 26 10 14 1004.6 1004.3 0.4
20/11:00am 28.8 34.1 28.6 99 0.1 WSW 19 24 10 13 1004.4 1004.1 0.4
20/10:30am 28.0 32.7 28.0 100 0.0 WSW 20 26 11 14 1004.0 1003.7 0.4
20/10:00am 27.7 32.7 27.7 100 0.0 WNW 17 20 9 11 1003.6 1003.3 0.4
20/09:30am 26.8 32.3 26.8 100 0.0 W 11 17 6 9 1003.7 1003.4 0.4
20/09:00am 26.6 30.9 26.6 100 0.0 WSW 17 22 9 12 1004.1 1003.8 -
20/08:30am 26.9 31.0 26.9 100 0.0 NW 19 24 10 13 1003.9 1003.6 -
20/08:00am 26.6 30.5 26.6 100 0.0 NW 19 26 10 14 1003.9 1003.6 -
20/07:30am 26.3 31.9 26.3 100 0.0 W 9 11 5 6 1002.7 1002.4 -
20/07:00am 26.2 32.3 26.2 100 0.0 SSW 6 9 3 5 1002.3 1002.0 -
20/06:30am 26.0 32.0 26.0 100 0.0 ESE 6 9 3 5 1001.3 1000.9 -
20/06:00am 25.9 30.1 25.9 100 0.0 E 15 20 8 11 1000.6 1000.2 -
20/05:30am 25.9 29.3 25.9 100 0.0 E 19 24 10 13 1000.4 1000.0 -
20/05:00am 26.0 29.9 26.0 100 0.0 ESE 17 20 9 11 1000.8 1000.4 -
20/04:30am 26.0 31.0 26.0 100 0.0 ESE 11 15 6 8 1001.5 1001.2 -
20/04:00am 25.9 29.1 25.9 100 0.0 SE 20 28 11 15 1001.2 1000.8 -
20/03:30am 26.0 31.0 26.0 100 0.0 SE 11 15 6 8 1002.8 1002.5 -
20/03:00am 26.2 29.8 26.2 100 0.0 ESE 19 24 10 13 1001.3 1000.9 14.0
20/02:30am 26.3 29.4 26.3 100 0.0 SE 22 28 12 15 1000.7 1000.3 -
20/02:00am 26.3 30.7 26.3 100 0.0 SE 15 20 8 11 1002.0 1001.7 -
20/01:30am 26.6 28.4 26.6 100 0.0 SSE 30 41 16 22 1001.8 1001.5 -
20/01:04am 26.8 26.6 26.8 100 0.0 S 41 57 22 31 1000.1 999.7 -
20/01:00am 26.5 26.1 26.5 100 0.0 S 41 57 22 31 1000.5 1000.1 -
20/12:55am 26.3 25.8 26.3 100 0.0 SE 41 52 22 28 999.1 998.7 -
20/12:44am 26.2 26.4 26.2 100 0.0 SSE 37 54 20 29 998.9 998.5 -
20/12:33am 26.2 23.8 26.0 99 0.1 S 50 69 27 37 999.8 999.4 -
20/12:30am 25.9 22.5 25.6 98 0.2 SSE 54 69 29 37 999.4 999.0 -
20/12:21am 28.8 25.9 25.2 81 2.5 S 50 67 27 36 999.6 999.2 -
20/12:10am 33.9 29.9 22.0 49 8.1 SSW 46 72 25 39 998.6 998.2 -
20/12:07am 34.3 30.5 21.4 47 8.8 SW 43 69 23 37 998.6 998.2 -
20/12:00am 34.4 35.0 21.4 46 8.9 NW 20 52 11 28 999.2 998.8 -
 
Date/Time
CDT
Temp
°C
App
Temp
°C
Dew
Point
°C
Rel
Hum
%
Delta-T
°C
Wind Press
QNH
hPa
Press
MSL
hPa
Rain since
9am
mm
Dir  Spd
km/h
Gust
km/h
Spd
kts
Gust
kts
19/11:59pm 35.4 36.3 21.6 44 9.4 NW 19 52 10 28 999.1 998.7 -
19/11:30pm 38.0 37.5 17.9 30 13.2 N 17 20 9 11 998.1 997.7 -
19/11:00pm 38.4 37.3 17.7 29 13.5 N 20 24 11 13 998.2 997.8 -
19/10:30pm 38.8 37.6 17.5 28 14.0 N 20 24 11 13 998.1 997.7 -
19/10:00pm 39.3 37.3 17.4 27 14.3 N 24 28 13 15 998.1 997.7 -
19/09:30pm 39.6 37.7 17.7 28 14.4 N 24 32 13 17 998.2 997.8 -
19/09:00pm 39.9 37.9 17.3 26 14.8 N 24 30 13 16 998.3 997.9 -
19/08:30pm 40.4 37.6 17.2 26 15.2 NNW 28 37 15 20 998.5 998.1 -
19/08:00pm 40.7 38.3 17.4 25 15.3 NNW 26 41 14 22 998.5 998.1 -
19/07:30pm 41.5 38.0 17.5 25 15.9 NNW 32 41 17 22 998.4 998.0 -
19/07:00pm 42.1 39.1 16.7 23 16.6 NNW 28 35 15 19 998.4 998.0 -
19/06:30pm 42.6 39.0 17.1 23 16.8 NNW 32 44 17 24 998.2 997.8 0.0
19/06:26pm 42.2 38.4 16.7 22 16.6 NNW 32 50 17 27 998.2 997.8 0.0
19/06:00pm 42.6 38.8 17.1 23 16.8 NNW 33 46 18 25 998.4 998.0 0.0
19/05:48pm 42.6 39.2 17.7 23 16.5 NNW 32 50 17 27 998.5 998.1 0.0
19/05:37pm 42.4 37.3 16.9 22 16.7 NNW 39 56 21 30 998.8 998.4 0.0
19/05:34pm 42.5 37.9 17.0 23 16.7 NNW 37 56 20 30 998.7 998.3 0.0
19/05:30pm 42.9 38.4 17.3 22 16.9 NNW 37 56 20 30 998.9 998.5 0.0
19/05:16pm 43.2 39.2 17.6 23 16.9 NNW 35 56 19 30 999.1 998.7 0.0
19/05:00pm 43.1 40.0 17.5 23 16.9 NNW 30 43 16 23 999.4 999.0 0.0
19/04:43pm 42.4 39.2 18.2 24 16.1 NW 32 50 17 27 999.8 999.4 0.0
19/04:30pm 42.6 39.2 17.7 23 16.5 NNW 32 46 17 25 1000.1 999.7 0.0

Other Formats:

Comma delimited format used in spreadsheet applications
http://www.bom.gov.au/fwo/IDS60801/IDS60801.95480.axf

JavaScript Object Notation format (JSON) in row-major order
http://www.bom.gov.au/fwo/IDS60801/IDS60801.95480.json